createdAt,value
2018-12-02T00:00:20.805Z,14.97
2018-12-02T00:03:25.276Z,14.30
2018-12-02T00:06:29.599Z,13.80
2018-12-02T00:09:35.781Z,12.30
2018-12-02T00:12:40.239Z,15.17
2018-12-02T00:15:44.555Z,18.73
2018-12-02T00:18:48.971Z,13.90
2018-12-02T00:21:53.388Z,14.37
2018-12-02T00:24:57.782Z,15.70
2018-12-02T00:28:02.323Z,15.80
2018-12-02T00:31:07.227Z,18.67
2018-12-02T00:34:12.002Z,15.13
2018-12-02T00:37:16.427Z,15.40
2018-12-02T00:40:22.323Z,14.63
2018-12-02T00:43:26.691Z,15.70
2018-12-02T00:50:11.773Z,13.87
2018-12-02T00:53:16.045Z,15.03
2018-12-02T00:56:18.950Z,15.23
2018-12-02T00:59:23.231Z,15.63
2018-12-02T01:02:27.574Z,17.73
2018-12-02T01:05:32.265Z,15.57
2018-12-02T01:08:37.307Z,11.83
2018-12-02T01:11:41.814Z,14.40
2018-12-02T01:14:46.112Z,13.00
2018-12-02T01:17:50.615Z,12.83
2018-12-02T01:20:55.068Z,12.67
2018-12-02T01:23:59.381Z,15.20
2018-12-02T01:27:04.069Z,13.17
2018-12-02T01:30:21.980Z,15.90
2018-12-02T01:33:26.415Z,15.37
2018-12-02T01:36:30.722Z,15.77
2018-12-02T01:39:35.079Z,15.53
2018-12-02T01:42:39.629Z,14.77
2018-12-02T01:45:44.254Z,13.57
2018-12-02T01:48:48.575Z,15.73
2018-12-02T01:51:53.437Z,15.40
2018-12-02T01:54:57.749Z,18.77
2018-12-02T01:58:02.101Z,16.50
2018-12-02T02:01:06.849Z,17.80
2018-12-02T02:04:11.306Z,18.57
2018-12-02T02:07:15.654Z,14.80
2018-12-02T02:10:22.606Z,16.17
2018-12-02T02:13:31.767Z,18.87
2018-12-02T02:19:48.802Z,16.53
2018-12-02T02:22:54.646Z,19.37
2018-12-02T02:26:00.737Z,16.10
2018-12-02T02:29:05.721Z,21.37
2018-12-02T02:32:10.005Z,21.43
2018-12-02T02:35:14.874Z,20.73
2018-12-02T02:38:19.303Z,18.07
2018-12-02T02:41:23.743Z,22.30
2018-12-02T02:44:28.114Z,20.63
2018-12-02T02:47:32.429Z,18.77
2018-12-02T02:50:36.986Z,19.10
2018-12-02T02:53:41.361Z,22.33
2018-12-02T02:56:45.832Z,18.37
2018-12-02T02:59:51.597Z,20.03
2018-12-02T03:02:55.931Z,20.60
2018-12-02T03:06:00.224Z,21.10
2018-12-02T03:09:06.815Z,20.33
2018-12-02T03:12:11.172Z,25.97
2018-12-02T03:15:17.733Z,21.60
2018-12-02T03:18:22.060Z,24.80
2018-12-02T03:21:26.630Z,22.73
2018-12-02T03:24:30.923Z,24.90
2018-12-02T03:27:35.707Z,23.03
2018-12-02T03:30:40.919Z,21.67
2018-12-02T03:33:45.360Z,20.17
2018-12-02T03:36:49.821Z,23.70
2018-12-02T03:39:54.183Z,20.70
2018-12-02T03:42:58.659Z,20.67
2018-12-02T03:46:03.918Z,19.93
2018-12-02T03:49:08.277Z,15.67
2018-12-02T03:52:12.608Z,18.40
2018-12-02T03:55:18.031Z,17.13
2018-12-02T03:58:22.539Z,15.93
2018-12-02T04:01:27.883Z,16.60
2018-12-02T04:04:32.177Z,18.13
2018-12-02T04:07:36.525Z,18.03
2018-12-02T04:10:41.310Z,19.17
2018-12-02T04:13:45.795Z,22.03
2018-12-02T04:16:50.095Z,20.60
2018-12-02T04:19:54.567Z,22.30
2018-12-02T04:22:59.770Z,20.73
2018-12-02T04:26:04.504Z,21.13
2018-12-02T04:29:09.038Z,21.83
2018-12-02T04:32:14.401Z,22.87
2018-12-02T04:35:22.914Z,22.77
2018-12-02T04:38:27.246Z,22.07
2018-12-02T04:41:31.567Z,21.63
2018-12-02T04:44:35.860Z,24.13
2018-12-02T04:47:40.117Z,21.47
2018-12-02T04:50:44.836Z,22.20
2018-12-02T04:53:49.266Z,22.70
2018-12-02T04:56:53.750Z,22.13
2018-12-02T04:59:58.186Z,21.50
2018-12-02T05:03:02.587Z,22.73
2018-12-02T05:06:06.893Z,22.93
2018-12-02T05:09:12.183Z,23.13
2018-12-02T05:12:17.004Z,22.00
2018-12-02T05:15:23.097Z,20.67
2018-12-02T05:18:27.590Z,20.97
2018-12-02T05:21:31.859Z,20.93
2018-12-02T05:24:36.173Z,22.53
2018-12-02T05:27:40.856Z,25.17
2018-12-02T05:30:45.099Z,22.47
2018-12-02T05:33:49.485Z,22.57
2018-12-02T05:36:53.778Z,22.13
2018-12-02T05:39:59.702Z,23.87
2018-12-02T05:43:07.642Z,24.10
2018-12-02T05:46:14.500Z,21.87
2018-12-02T05:49:18.886Z,24.50
2018-12-02T05:52:23.366Z,20.80
2018-12-02T05:55:34.046Z,20.43
2018-12-02T05:58:38.358Z,22.50
2018-12-02T06:01:42.634Z,23.47
2018-12-02T06:04:47.166Z,22.23
2018-12-02T06:07:52.348Z,21.30
2018-12-02T06:10:57.436Z,24.43
2018-12-02T06:14:03.782Z,22.70
2018-12-02T06:17:08.661Z,21.20
2018-12-02T06:20:27.859Z,26.00
2018-12-02T06:23:32.146Z,21.00
2018-12-02T06:26:36.516Z,26.07
2018-12-02T06:29:42.241Z,25.60
2018-12-02T06:32:47.813Z,23.40
2018-12-02T06:35:53.913Z,22.07
2018-12-02T06:38:58.244Z,22.90
2018-12-02T06:42:02.622Z,23.00
2018-12-02T06:45:10.938Z,23.00
2018-12-02T06:48:15.361Z,23.60
2018-12-02T06:51:19.733Z,21.10
2018-12-02T06:54:27.500Z,21.33
2018-12-02T06:57:33.109Z,22.43
2018-12-02T07:03:00.209Z,23.77
2018-12-02T07:06:04.509Z,22.40
2018-12-02T07:09:09.300Z,21.13
2018-12-02T07:12:13.624Z,21.33
2018-12-02T07:15:17.905Z,21.03
2018-12-02T07:18:25.967Z,24.43
2018-12-02T07:21:34.099Z,20.00
2018-12-02T07:24:41.085Z,18.70
2018-12-02T07:27:46.011Z,16.63
2018-12-02T07:30:50.467Z,18.93
2018-12-02T07:34:02.557Z,16.83
2018-12-02T07:37:17.907Z,16.20
2018-12-02T07:40:29.637Z,16.07
2018-12-02T07:43:36.241Z,15.90
2018-12-02T07:46:40.675Z,15.50
2018-12-02T07:49:51.071Z,14.67
2018-12-02T07:52:55.374Z,14.53
2018-12-02T07:55:59.641Z,15.30
2018-12-02T07:59:04.012Z,13.87
2018-12-02T08:02:09.429Z,13.13
2018-12-02T08:05:16.389Z,13.87
2018-12-02T08:08:20.667Z,13.60
2018-12-02T08:11:25.081Z,13.13
2018-12-02T08:14:29.687Z,11.57
2018-12-02T08:17:34.225Z,13.37
2018-12-02T08:20:41.256Z,13.63
2018-12-02T08:23:46.515Z,14.20
2018-12-02T08:26:51.288Z,14.83
2018-12-02T08:29:57.048Z,17.50
2018-12-02T08:33:01.591Z,15.43
2018-12-02T08:36:06.337Z,16.70
2018-12-02T08:39:13.818Z,16.90
2018-12-02T08:42:18.106Z,15.37
2018-12-02T08:45:22.362Z,16.40
2018-12-02T08:48:27.189Z,16.27
2018-12-02T08:51:31.674Z,17.83
2018-12-02T08:54:36.550Z,15.60
2018-12-02T08:57:41.081Z,16.97
2018-12-02T09:00:46.502Z,18.17
2018-12-02T09:03:51.338Z,19.27
2018-12-02T09:06:55.652Z,19.70
2018-12-02T09:10:00.612Z,18.80
2018-12-02T09:13:07.586Z,17.43
2018-12-02T09:19:34.781Z,18.03
2018-12-02T09:22:39.611Z,19.93
2018-12-02T09:25:44.281Z,18.33
2018-12-02T09:28:48.626Z,17.80
2018-12-02T09:31:52.944Z,18.57
2018-12-02T09:35:00.715Z,21.20
2018-12-02T09:41:17.810Z,24.77
2018-12-02T09:44:22.177Z,21.77
2018-12-02T09:47:26.516Z,19.80
2018-12-02T09:50:30.786Z,22.40
2018-12-02T09:53:35.164Z,22.93
2018-12-02T09:56:39.459Z,22.77
2018-12-02T09:59:43.897Z,23.07
2018-12-02T10:02:48.167Z,21.23
2018-12-02T10:05:53.463Z,23.07
2018-12-02T10:08:57.799Z,21.10
2018-12-02T10:12:02.087Z,22.20
2018-12-02T10:15:10.415Z,23.13
2018-12-02T10:18:14.859Z,23.50
2018-12-02T10:21:19.410Z,21.10
2018-12-02T10:24:23.713Z,24.40
2018-12-02T10:27:28.010Z,23.63
2018-12-02T10:30:32.511Z,22.70
2018-12-02T10:33:36.828Z,23.00
2018-12-02T10:36:41.181Z,20.43
2018-12-02T10:39:45.656Z,20.93
2018-12-02T10:42:50.251Z,20.70
2018-12-02T10:45:54.812Z,20.27
2018-12-02T10:49:00.708Z,21.47
2018-12-02T10:52:05.066Z,19.57
2018-12-02T10:55:29.051Z,22.53
2018-12-02T10:58:36.877Z,26.33
2018-12-02T11:01:42.840Z,21.07
2018-12-02T11:04:54.397Z,21.47
2018-12-02T11:07:59.193Z,22.67
2018-12-02T11:11:03.610Z,20.00
2018-12-02T11:14:08.092Z,19.93
2018-12-02T11:17:12.526Z,21.77
2018-12-02T11:20:17.877Z,19.20
2018-12-02T11:23:22.209Z,17.37
2018-12-02T11:26:32.057Z,16.77
2018-12-02T11:29:36.508Z,21.07
2018-12-02T11:32:41.843Z,16.93
2018-12-02T11:35:46.511Z,15.43
2018-12-02T11:39:01.282Z,16.60
2018-12-02T11:42:05.776Z,17.03
2018-12-02T11:45:15.540Z,18.10
2018-12-02T11:48:29.093Z,16.67
2018-12-02T11:51:33.413Z,16.13
2018-12-02T11:54:38.124Z,16.20
2018-12-02T11:57:42.572Z,15.80
2018-12-02T12:00:46.900Z,17.60
2018-12-02T12:03:52.122Z,16.47
2018-12-02T12:06:56.699Z,19.00
2018-12-02T12:10:01.228Z,16.87
2018-12-02T12:13:09.327Z,18.93
2018-12-02T12:16:14.154Z,17.87
2018-12-02T12:19:18.563Z,15.77
2018-12-02T12:22:27.253Z,18.23
2018-12-02T12:25:31.698Z,18.03
2018-12-02T12:28:36.846Z,18.90
2018-12-02T12:31:41.927Z,16.70
2018-12-02T12:34:51.619Z,15.60
2018-12-02T12:37:56.103Z,15.97
2018-12-02T12:41:13.522Z,15.27
2018-12-02T12:44:18.872Z,15.97
2018-12-02T12:47:23.274Z,15.20
2018-12-02T12:50:28.880Z,14.23
2018-12-02T12:53:33.926Z,15.77
2018-12-02T12:56:38.286Z,16.87
2018-12-02T12:59:58.103Z,16.77
2018-12-02T13:03:17.098Z,16.17
2018-12-02T13:06:21.440Z,14.80
2018-12-02T13:09:28.197Z,14.80
2018-12-02T13:12:32.724Z,14.60
2018-12-02T13:15:37.879Z,13.43
2018-12-02T13:18:42.383Z,13.93
2018-12-02T13:21:52.620Z,15.47
2018-12-02T13:24:57.068Z,12.77
2018-12-02T13:28:01.513Z,13.20
2018-12-02T13:31:06.266Z,13.57
2018-12-02T13:34:11.198Z,14.10
2018-12-02T13:37:15.582Z,13.20
2018-12-02T13:40:21.223Z,15.47
2018-12-02T13:43:26.781Z,12.77
2018-12-02T13:46:39.039Z,15.97
2018-12-02T13:49:43.542Z,15.17
2018-12-02T13:52:49.589Z,13.10
2018-12-02T13:55:54.102Z,13.07
2018-12-02T13:58:58.379Z,14.47
2018-12-02T14:02:02.908Z,13.27
2018-12-02T14:05:10.490Z,11.13
2018-12-02T14:08:16.394Z,10.97
2018-12-02T14:11:21.089Z,9.80
2018-12-02T14:14:27.912Z,10.20
2018-12-02T14:17:33.686Z,10.30
2018-12-02T14:20:38.279Z,10.90
2018-12-02T14:23:44.421Z,9.40
2018-12-02T14:26:49.877Z,9.53
2018-12-02T14:29:56.279Z,9.63
2018-12-02T14:33:00.554Z,9.30
2018-12-02T14:36:05.115Z,8.27
2018-12-02T14:39:12.746Z,8.93
2018-12-02T14:42:17.679Z,7.77
2018-12-02T14:45:22.213Z,9.73
2018-12-02T14:48:27.316Z,9.83
2018-12-02T14:51:31.929Z,9.57
2018-12-02T14:54:36.861Z,8.70
2018-12-02T14:57:41.744Z,9.63
2018-12-02T15:00:48.195Z,8.60
2018-12-02T15:03:53.238Z,9.00
2018-12-02T15:06:57.869Z,9.20
2018-12-02T15:10:02.475Z,9.10
2018-12-02T15:13:07.845Z,8.37
2018-12-02T15:16:12.543Z,8.20
2018-12-02T15:19:17.355Z,8.13
2018-12-02T15:22:21.715Z,8.33
2018-12-02T15:25:26.133Z,7.50
2018-12-02T15:28:30.701Z,8.13
2018-12-02T15:31:35.301Z,8.53
2018-12-02T15:34:40.859Z,9.50
2018-12-02T15:37:45.306Z,9.43
2018-12-02T15:40:49.808Z,8.80
2018-12-02T15:43:54.342Z,8.80
2018-12-02T15:46:58.834Z,8.67
2018-12-02T15:50:14.276Z,8.20
2018-12-02T15:53:18.668Z,7.47
2018-12-02T15:56:24.494Z,7.63
2018-12-02T15:59:30.224Z,7.97
2018-12-02T16:02:35.664Z,7.87
2018-12-02T16:05:40.052Z,8.10
2018-12-02T16:08:53.876Z,6.50
2018-12-02T16:11:59.807Z,7.80
2018-12-02T16:15:05.206Z,9.17
2018-12-02T16:18:12.914Z,9.47
2018-12-02T16:24:33.186Z,10.80
2018-12-02T16:27:37.879Z,10.63
2018-12-02T16:30:42.601Z,10.73
2018-12-02T16:33:47.018Z,13.83
2018-12-02T16:36:52.790Z,15.83
2018-12-02T16:39:58.087Z,12.00
2018-12-02T16:43:02.564Z,16.77
2018-12-02T16:46:07.670Z,15.73
2018-12-02T16:49:16.473Z,25.27
2018-12-02T16:55:57.981Z,18.40
2018-12-02T16:59:15.866Z,18.17
2018-12-02T17:02:21.188Z,17.27
2018-12-02T17:05:25.651Z,19.23
2018-12-02T17:08:30.304Z,15.93
2018-12-02T17:11:35.030Z,15.60
2018-12-02T17:14:40.287Z,15.97
2018-12-02T17:17:46.782Z,12.27
2018-12-02T17:24:10.566Z,11.87
2018-12-02T17:27:16.606Z,15.60
2018-12-02T17:30:59.483Z,15.50
2018-12-02T17:34:06.785Z,14.97
2018-12-02T17:37:20.596Z,13.40
2018-12-02T17:40:25.428Z,13.23
2018-12-02T17:43:30.585Z,10.30
2018-12-02T17:46:38.239Z,12.73
2018-12-02T17:49:52.752Z,10.37
2018-12-02T17:52:57.793Z,12.43
2018-12-02T17:57:11.183Z,11.50
2018-12-02T18:00:24.999Z,9.70
2018-12-02T18:03:33.462Z,11.57
2018-12-02T18:06:43.415Z,9.57
2018-12-02T18:09:47.866Z,8.20
2018-12-02T18:12:53.408Z,8.00
2018-12-02T18:15:59.158Z,11.87
2018-12-02T18:19:09.032Z,6.73
2018-12-02T18:22:18.178Z,10.73
2018-12-02T18:28:36.348Z,5.60
2018-12-02T18:31:41.423Z,7.17
2018-12-02T18:34:47.715Z,9.03
2018-12-02T18:37:54.737Z,7.03
2018-12-02T18:41:08.049Z,6.00
2018-12-02T18:44:17.563Z,6.47
2018-12-02T18:51:42.758Z,4.67
2018-12-02T18:54:48.589Z,7.33
2018-12-02T18:57:53.297Z,4.20
2018-12-02T19:00:58.985Z,6.40
2018-12-02T19:04:04.414Z,5.77
2018-12-02T19:07:09.400Z,4.37
2018-12-02T19:10:21.736Z,9.40
2018-12-02T19:13:31.247Z,5.60
2018-12-02T19:16:36.113Z,8.53
2018-12-02T19:19:50.059Z,9.50
2018-12-02T19:22:58.275Z,8.67
2018-12-02T19:26:03.406Z,12.07
2018-12-02T19:29:09.891Z,11.97
2018-12-02T19:32:15.002Z,17.17
2018-12-02T19:35:26.498Z,13.63
2018-12-02T19:38:33.709Z,16.37
2018-12-02T19:41:38.589Z,22.00
2018-12-02T19:44:44.716Z,20.13
2018-12-02T19:47:49.846Z,16.67
2018-12-02T19:50:54.461Z,11.03
2018-12-02T19:54:01.536Z,9.57
2018-12-02T19:57:06.953Z,10.93
2018-12-02T20:00:24.829Z,13.00
2018-12-02T20:03:31.706Z,11.70
2018-12-02T20:06:37.108Z,10.07
2018-12-02T20:09:41.787Z,11.17
2018-12-02T20:12:46.725Z,12.63
2018-12-02T20:15:58.106Z,12.90
2018-12-02T20:19:06.803Z,9.83
2018-12-02T20:22:12.652Z,12.37
2018-12-02T20:25:18.238Z,8.63
2018-12-02T20:28:26.568Z,8.17
2018-12-02T20:31:31.523Z,9.97
2018-12-02T20:34:37.957Z,9.77
2018-12-02T20:37:42.823Z,11.60
2018-12-02T20:40:47.747Z,13.93
2018-12-02T20:43:52.316Z,13.03
2018-12-02T20:46:57.594Z,12.73
2018-12-02T20:50:05.790Z,9.03
2018-12-02T20:53:15.928Z,10.57
2018-12-02T20:56:15.472Z,13.20
2018-12-02T20:59:20.295Z,8.17
2018-12-02T21:02:27.263Z,9.93
2018-12-02T21:05:39.592Z,12.23
2018-12-02T21:08:44.355Z,14.17
2018-12-02T21:11:48.960Z,12.90
2018-12-02T21:14:53.788Z,11.93
2018-12-02T21:17:58.422Z,12.10
2018-12-02T21:24:15.582Z,13.20
2018-12-02T21:27:20.775Z,14.83
2018-12-02T21:30:28.704Z,14.67
2018-12-02T21:33:33.382Z,14.80
2018-12-02T21:36:38.095Z,13.07
2018-12-02T21:39:43.299Z,11.10
2018-12-02T21:42:48.304Z,12.20
2018-12-02T21:45:53.141Z,10.10
2018-12-02T21:48:57.868Z,16.13
2018-12-02T21:52:02.721Z,9.40
2018-12-02T21:55:08.565Z,11.87
2018-12-02T21:58:13.437Z,11.27
2018-12-02T22:01:18.181Z,11.03
2018-12-02T22:04:22.714Z,9.33
2018-12-02T22:07:27.995Z,9.47
2018-12-02T22:10:33.986Z,9.50
2018-12-02T22:13:43.385Z,10.80
2018-12-02T22:16:43.560Z,12.47
2018-12-02T22:19:48.157Z,10.87
2018-12-02T22:22:53.049Z,16.10
2018-12-02T22:25:57.639Z,11.83
2018-12-02T22:29:02.310Z,14.60
2018-12-02T22:32:07.278Z,10.47
2018-12-02T22:35:13.197Z,9.87
2018-12-02T22:38:18.240Z,11.53
2018-12-02T22:41:22.827Z,13.77
2018-12-02T22:44:31.468Z,13.23
2018-12-02T22:47:33.157Z,12.87
2018-12-02T22:50:37.960Z,9.67
2018-12-02T22:53:42.349Z,11.37
2018-12-02T22:56:46.858Z,9.10
2018-12-02T22:59:51.432Z,9.67
2018-12-02T23:03:01.254Z,10.13
2018-12-02T23:06:05.681Z,8.27
2018-12-02T23:09:10.180Z,10.87
2018-12-02T23:12:14.828Z,7.63
2018-12-02T23:15:19.741Z,8.27
2018-12-02T23:18:24.659Z,10.30
2018-12-02T23:21:29.109Z,9.77
2018-12-02T23:24:33.658Z,17.17
2018-12-02T23:27:38.067Z,16.00
2018-12-02T23:30:42.521Z,12.23
2018-12-02T23:33:46.950Z,15.60
2018-12-02T23:36:51.833Z,18.57
2018-12-02T23:39:57.307Z,21.27
2018-12-02T23:43:02.247Z,24.50
2018-12-02T23:46:06.664Z,29.90
2018-12-02T23:49:11.031Z,27.77
2018-12-02T23:52:15.455Z,26.20
2018-12-02T23:55:20.861Z,29.17
2018-12-02T23:58:25.585Z,26.63
